sensor_id;sensor_type;location;lat;lon;timestamp;pressure;altitude;pressure_sealevel;temperature
76381;BMP280;65202;52.520;10.528;2023-09-19T00:00:57;99994.22;;;17.99
76381;BMP280;65202;52.520;10.528;2023-09-19T00:03:25;99992.53;;;17.95
76381;BMP280;65202;52.520;10.528;2023-09-19T00:05:53;99990.88;;;18.12
76381;BMP280;65202;52.520;10.528;2023-09-19T00:08:22;99987.56;;;18.19
76381;BMP280;65202;52.520;10.528;2023-09-19T00:10:49;99996.00;;;18.24
76381;BMP280;65202;52.520;10.528;2023-09-19T00:13:16;100002.69;;;18.13
76381;BMP280;65202;52.520;10.528;2023-09-19T00:15:45;100002.72;;;18.16
76381;BMP280;65202;52.520;10.528;2023-09-19T00:18:19;100011.97;;;17.94
76381;BMP280;65202;52.520;10.528;2023-09-19T00:20:51;100000.19;;;18.16
76381;BMP280;65202;52.520;10.528;2023-09-19T00:23:20;99999.38;;;18.20
76381;BMP280;65202;52.520;10.528;2023-09-19T00:25:48;99994.25;;;18.15
76381;BMP280;65202;52.520;10.528;2023-09-19T00:28:18;100001.81;;;17.99
76381;BMP280;65202;52.520;10.528;2023-09-19T00:30:47;100010.28;;;18.13
76381;BMP280;65202;52.520;10.528;2023-09-19T00:33:18;100007.66;;;17.81
76381;BMP280;65202;52.520;10.528;2023-09-19T00:35:56;100012.81;;;18.01
76381;BMP280;65202;52.520;10.528;2023-09-19T00:38:24;100012.84;;;18.13
76381;BMP280;65202;52.520;10.528;2023-09-19T00:40:56;100014.50;;;17.96
76381;BMP280;65202;52.520;10.528;2023-09-19T00:43:27;100006.88;;;17.99
76381;BMP280;65202;52.520;10.528;2023-09-19T00:45:56;100012.00;;;18.11
76381;BMP280;65202;52.520;10.528;2023-09-19T00:48:25;100014.44;;;17.78
76381;BMP280;65202;52.520;10.528;2023-09-19T00:50:57;100013.63;;;17.92
76381;BMP280;65202;52.520;10.528;2023-09-19T00:53:27;100022.75;;;17.58
76381;BMP280;65202;52.520;10.528;2023-09-19T00:55:55;100017.81;;;17.86
76381;BMP280;65202;52.520;10.528;2023-09-19T00:58:26;100019.50;;;17.81
76381;BMP280;65202;52.520;10.528;2023-09-19T01:00:59;100007.72;;;17.92
76381;BMP280;65202;52.520;10.528;2023-09-19T01:03:27;100006.84;;;17.85
76381;BMP280;65202;52.520;10.528;2023-09-19T01:05:56;100011.09;;;17.89
76381;BMP280;65202;52.520;10.528;2023-09-19T01:08:23;100021.16;;;17.73
76381;BMP280;65202;52.520;10.528;2023-09-19T01:10:59;100016.97;;;17.85
76381;BMP280;65202;52.520;10.528;2023-09-19T01:13:55;100021.16;;;17.73
76381;BMP280;65202;52.520;10.528;2023-09-19T01:16:42;100006.84;;;17.93
76381;BMP280;65202;52.520;10.528;2023-09-19T01:31:47;100027.72;;;17.41
76381;BMP280;65202;52.520;10.528;2023-09-19T01:34:16;100026.91;;;17.44
76381;BMP280;65202;52.520;10.528;2023-09-19T01:36:45;100034.56;;;17.56
76381;BMP280;65202;52.520;10.528;2023-09-19T01:39:13;100044.56;;;17.33
76381;BMP280;65202;52.520;10.528;2023-09-19T01:41:51;100042.84;;;17.29
76381;BMP280;65202;52.520;10.528;2023-09-19T01:47:23;100040.44;;;17.47
76381;BMP280;65202;52.520;10.528;2023-09-19T01:50:17;100037.94;;;17.56
76381;BMP280;65202;52.520;10.528;2023-09-19T01:52:57;100048.75;;;17.31
76381;BMP280;65202;52.520;10.528;2023-09-19T01:55:36;100050.50;;;17.37
76381;BMP280;65202;52.520;10.528;2023-09-19T01:58:17;100045.44;;;17.43
76381;BMP280;65202;52.520;10.528;2023-09-19T02:00:49;100054.44;;;17.03
76381;BMP280;65202;52.520;10.528;2023-09-19T02:03:21;100061.25;;;17.10
76381;BMP280;65202;52.520;10.528;2023-09-19T02:05:52;100055.34;;;17.13
76381;BMP280;65202;52.520;10.528;2023-09-19T02:08:22;100065.47;;;17.13
76381;BMP280;65202;52.520;10.528;2023-09-19T02:10:51;100062.88;;;17.05
76381;BMP280;65202;52.520;10.528;2023-09-19T02:13:20;100067.00;;;16.93
76381;BMP280;65202;52.520;10.528;2023-09-19T02:15:52;100063.66;;;16.97
76381;BMP280;65202;52.520;10.528;2023-09-19T02:18:19;100072.19;;;17.08
76381;BMP280;65202;52.520;10.528;2023-09-19T02:20:50;100066.31;;;17.15
76381;BMP280;65202;52.520;10.528;2023-09-19T02:23:23;100076.41;;;17.10
76381;BMP280;65202;52.520;10.528;2023-09-19T02:25:54;100077.19;;;17.05
76381;BMP280;65202;52.520;10.528;2023-09-19T02:28:28;100080.72;;;17.23
76381;BMP280;65202;52.520;10.528;2023-09-19T02:30:59;100079.78;;;17.09
76381;BMP280;65202;52.520;10.528;2023-09-19T02:33:28;100086.50;;;17.09
76381;BMP280;65202;52.520;10.528;2023-09-19T02:36:00;100079.97;;;17.33
76381;BMP280;65202;52.520;10.528;2023-09-19T02:38:28;100092.47;;;17.18
76381;BMP280;65202;52.520;10.528;2023-09-19T02:40:56;100093.38;;;17.23
76381;BMP280;65202;52.520;10.528;2023-09-19T02:43:23;100090.81;;;17.20
76381;BMP280;65202;52.520;10.528;2023-09-19T02:45:51;100097.56;;;17.23
76381;BMP280;65202;52.520;10.528;2023-09-19T02:48:22;100097.56;;;17.23
76381;BMP280;65202;52.520;10.528;2023-09-19T02:50:49;100102.72;;;17.30
76381;BMP280;65202;52.520;10.528;2023-09-19T02:53:18;100098.31;;;17.08
76381;BMP280;65202;52.520;10.528;2023-09-19T02:55:46;100111.91;;;17.24
76381;BMP280;65202;52.520;10.528;2023-09-19T02:58:15;100114.38;;;17.16
76381;BMP280;65202;52.520;10.528;2023-09-19T03:00:43;100106.94;;;17.28
76381;BMP280;65202;52.520;10.528;2023-09-19T03:03:14;100116.06;;;17.17
76381;BMP280;65202;52.520;10.528;2023-09-19T03:05:44;100109.09;;;16.91
76381;BMP280;65202;52.520;10.528;2023-09-19T03:08:16;100111.84;;;17.15
76381;BMP280;65202;52.520;10.528;2023-09-19T03:10:47;100107.59;;;17.11
76381;BMP280;65202;52.520;10.528;2023-09-19T03:13:15;100112.88;;;17.33
76381;BMP280;65202;52.520;10.528;2023-09-19T03:15:43;100109.28;;;17.10
76381;BMP280;65202;52.520;10.528;2023-09-19T03:18:18;100110.06;;;17.06
76381;BMP280;65202;52.520;10.528;2023-09-19T03:20:53;100115.25;;;17.18
76381;BMP280;65202;52.520;10.528;2023-09-19T03:23:22;100106.72;;;17.09
76381;BMP280;65202;52.520;10.528;2023-09-19T03:25:50;100115.25;;;17.17
76381;BMP280;65202;52.520;10.528;2023-09-19T03:28:20;100125.22;;;17.01
76381;BMP280;65202;52.520;10.528;2023-09-19T03:31:05;100114.41;;;17.18
76381;BMP280;65202;52.520;10.528;2023-09-19T03:33:35;100116.88;;;17.10
76381;BMP280;65202;52.520;10.528;2023-09-19T03:36:02;100125.25;;;17.03
76381;BMP280;65202;52.520;10.528;2023-09-19T03:38:34;100115.25;;;17.23
76381;BMP280;65202;52.520;10.528;2023-09-19T03:41:02;100124.38;;;17.02
76381;BMP280;65202;52.520;10.528;2023-09-19T03:43:32;100123.44;;;16.91
76381;BMP280;65202;52.520;10.528;2023-09-19T03:46:03;100129.53;;;17.12
76381;BMP280;65202;52.520;10.528;2023-09-19T03:48:32;100134.53;;;17.07
76381;BMP280;65202;52.520;10.528;2023-09-19T03:51:04;100137.88;;;17.02
76381;BMP280;65202;52.520;10.528;2023-09-19T03:53:46;100131.72;;;16.78
76381;BMP280;65202;52.520;10.528;2023-09-19T03:56:16;100128.44;;;16.83
76381;BMP280;65202;52.520;10.528;2023-09-19T03:58:43;100138.31;;;16.64
76381;BMP280;65202;52.520;10.528;2023-09-19T04:01:10;100139.88;;;16.51
76381;BMP280;65202;52.520;10.528;2023-09-19T04:03:38;100136.75;;;16.72
76381;BMP280;65202;52.520;10.528;2023-09-19T04:06:24;100148.50;;;16.67
76381;BMP280;65202;52.520;10.528;2023-09-19T04:09:10;100149.38;;;16.73
76381;BMP280;65202;52.520;10.528;2023-09-19T04:11:40;100158.53;;;16.64
76381;BMP280;65202;52.520;10.528;2023-09-19T04:14:11;100161.78;;;16.52
76381;BMP280;65202;52.520;10.528;2023-09-19T04:16:41;100161.78;;;16.49
76381;BMP280;65202;52.520;10.528;2023-09-19T04:19:09;100153.41;;;16.55
76381;BMP280;65202;52.520;10.528;2023-09-19T04:21:37;100149.97;;;16.50
76381;BMP280;65202;52.520;10.528;2023-09-19T04:24:04;100152.56;;;16.54
76381;BMP280;65202;52.520;10.528;2023-09-19T04:26:32;100151.56;;;16.41
76381;BMP280;65202;52.520;10.528;2023-09-19T04:28:59;100156.66;;;16.45
76381;BMP280;65202;52.520;10.528;2023-09-19T04:31:28;100155.91;;;16.53
76381;BMP280;65202;52.520;10.528;2023-09-19T04:33:56;100155.00;;;16.47
76381;BMP280;65202;52.520;10.528;2023-09-19T04:36:23;100159.19;;;16.45
76381;BMP280;65202;52.520;10.528;2023-09-19T04:39:02;100161.78;;;16.49
76381;BMP280;65202;52.520;10.528;2023-09-19T04:41:34;100164.31;;;16.52
76381;BMP280;65202;52.520;10.528;2023-09-19T04:44:01;100156.81;;;16.57
76381;BMP280;65202;52.520;10.528;2023-09-19T04:46:29;100163.31;;;16.40
76381;BMP280;65202;52.520;10.528;2023-09-19T04:48:56;100170.97;;;16.46
76381;BMP280;65202;52.520;10.528;2023-09-19T04:51:23;100175.13;;;16.38
76381;BMP280;65202;52.520;10.528;2023-09-19T04:53:51;100178.47;;;16.37
76381;BMP280;65202;52.520;10.528;2023-09-19T04:56:18;100173.72;;;16.65
76381;BMP280;65202;52.520;10.528;2023-09-19T04:58:46;100170.88;;;16.37
76381;BMP280;65202;52.520;10.528;2023-09-19T05:01:13;100177.66;;;16.42
76381;BMP280;65202;52.520;10.528;2023-09-19T05:03:42;100185.25;;;16.44
76381;BMP280;65202;52.520;10.528;2023-09-19T05:06:09;100187.97;;;16.57
76381;BMP280;65202;52.520;10.528;2023-09-19T05:08:37;100192.56;;;16.25
76381;BMP280;65202;52.520;10.528;2023-09-19T05:11:04;100199.41;;;16.29
76381;BMP280;65202;52.520;10.528;2023-09-19T05:13:31;100210.19;;;16.20
76381;BMP280;65202;52.520;10.528;2023-09-19T05:16:02;100205.00;;;16.11
76381;BMP280;65202;52.520;10.528;2023-09-19T05:18:29;100211.88;;;16.18
76381;BMP280;65202;52.520;10.528;2023-09-19T05:21:02;100204.22;;;16.14
76381;BMP280;65202;52.520;10.528;2023-09-19T05:23:30;100208.66;;;16.28
76381;BMP280;65202;52.520;10.528;2023-09-19T05:25:58;100212.91;;;16.29
76381;BMP280;65202;52.520;10.528;2023-09-19T05:28:27;100218.97;;;16.43
76381;BMP280;65202;52.520;10.528;2023-09-19T05:30:54;100218.56;;;16.18
76381;BMP280;65202;52.520;10.528;2023-09-19T05:33:22;100193.75;;;16.49
76381;BMP280;65202;52.520;10.528;2023-09-19T05:35:49;100201.41;;;16.56
76381;BMP280;65202;52.520;10.528;2023-09-19T05:38:16;100206.44;;;16.52
76381;BMP280;65202;52.520;10.528;2023-09-19T05:40:46;100204.75;;;16.52
76381;BMP280;65202;52.520;10.528;2023-09-19T05:43:13;100215.81;;;16.62
76381;BMP280;65202;52.520;10.528;2023-09-19T05:45:43;100218.09;;;16.42
76381;BMP280;65202;52.520;10.528;2023-09-19T05:48:14;100222.53;;;16.61
76381;BMP280;65202;52.520;10.528;2023-09-19T05:50:43;100231.41;;;16.31
76381;BMP280;65202;52.520;10.528;2023-09-19T05:53:14;100237.66;;;16.57
76381;BMP280;65202;52.520;10.528;2023-09-19T05:55:42;100228.75;;;16.22
76381;BMP280;65202;52.520;10.528;2023-09-19T05:58:10;100241.53;;;16.33
76381;BMP280;65202;52.520;10.528;2023-09-19T06:00:41;100246.44;;;16.25
76381;BMP280;65202;52.520;10.528;2023-09-19T06:03:10;100251.69;;;16.34
76381;BMP280;65202;52.520;10.528;2023-09-19T06:05:39;100259.22;;;16.33
76381;BMP280;65202;52.520;10.528;2023-09-19T06:08:08;100264.38;;;16.40
76381;BMP280;65202;52.520;10.528;2023-09-19T06:10:36;100278.00;;;16.51
76381;BMP280;65202;52.520;10.528;2023-09-19T06:13:04;100284.97;;;16.68
76381;BMP280;65202;52.520;10.528;2023-09-19T06:15:32;100283.25;;;16.66
76381;BMP280;65202;52.520;10.528;2023-09-19T06:18:00;100295.16;;;16.74
76381;BMP280;65202;52.520;10.528;2023-09-19T06:20:29;100295.97;;;16.72
76381;BMP280;65202;52.520;10.528;2023-09-19T06:22:56;100296.00;;;16.73
76381;BMP280;65202;52.520;10.528;2023-09-19T06:25:24;100303.78;;;16.90
76381;BMP280;65202;52.520;10.528;2023-09-19T06:27:52;100310.47;;;16.85
76381;BMP280;65202;52.520;10.528;2023-09-19T06:30:23;100291.16;;;16.93
76381;BMP280;65202;52.520;10.528;2023-09-19T06:32:59;100293.63;;;16.87
76381;BMP280;65202;52.520;10.528;2023-09-19T06:35:28;100293.75;;;16.99
76381;BMP280;65202;52.520;10.528;2023-09-19T06:38:03;100300.38;;;16.88
76381;BMP280;65202;52.520;10.528;2023-09-19T06:40:31;100296.22;;;16.91
76381;BMP280;65202;52.520;10.528;2023-09-19T06:42:58;100299.53;;;16.89
76381;BMP280;65202;52.520;10.528;2023-09-19T06:45:28;100293.69;;;16.94
76381;BMP280;65202;52.520;10.528;2023-09-19T06:47:56;100293.66;;;16.90
76381;BMP280;65202;52.520;10.528;2023-09-19T06:50:26;100292.16;;;17.06
76381;BMP280;65202;52.520;10.528;2023-09-19T06:52:54;100289.53;;;16.98
76381;BMP280;65202;52.520;10.528;2023-09-19T06:55:25;100283.81;;;17.12
76381;BMP280;65202;52.520;10.528;2023-09-19T06:57:56;100292.28;;;17.15
76381;BMP280;65202;52.520;10.528;2023-09-19T07:00:23;100290.72;;;17.28
76381;BMP280;65202;52.520;10.528;2023-09-19T07:03:09;100300.94;;;17.35
76381;BMP280;65202;52.520;10.528;2023-09-19T07:05:40;100305.97;;;17.34
76381;BMP280;65202;52.520;10.528;2023-09-19T07:08:08;100299.34;;;17.43
76381;BMP280;65202;52.520;10.528;2023-09-19T07:10:40;100295.19;;;17.48
76381;BMP280;65202;52.520;10.528;2023-09-19T07:13:09;100297.81;;;17.60
76381;BMP280;65202;52.520;10.528;2023-09-19T07:15:38;100308.81;;;17.65
76381;BMP280;65202;52.520;10.528;2023-09-19T07:18:08;100314.59;;;17.49
76381;BMP280;65202;52.520;10.528;2023-09-19T07:20:38;100313.88;;;17.61
76381;BMP280;65202;52.520;10.528;2023-09-19T07:23:05;100319.09;;;17.83
76381;BMP280;65202;52.520;10.528;2023-09-19T07:25:35;100324.97;;;17.74
76381;BMP280;65202;52.520;10.528;2023-09-19T07:28:03;100320.94;;;18.00
76381;BMP280;65202;52.520;10.528;2023-09-19T07:30:30;100318.25;;;19.22
76381;BMP280;65202;52.520;10.528;2023-09-19T07:32:58;100330.22;;;19.60
76381;BMP280;65202;52.520;10.528;2023-09-19T07:35:25;100318.41;;;20.05
76381;BMP280;65202;52.520;10.528;2023-09-19T07:37:52;100309.84;;;20.52
76381;BMP280;65202;52.520;10.528;2023-09-19T07:40:20;100308.66;;;21.35
76381;BMP280;65202;52.520;10.528;2023-09-19T07:42:48;100308.81;;;21.05
76381;BMP280;65202;52.520;10.528;2023-09-19T07:45:16;100293.16;;;21.74
76381;BMP280;65202;52.520;10.528;2023-09-19T07:47:45;100301.59;;;22.66
76381;BMP280;65202;52.520;10.528;2023-09-19T07:50:18;100310.09;;;22.68
76381;BMP280;65202;52.520;10.528;2023-09-19T07:52:47;100302.97;;;22.93
76381;BMP280;65202;52.520;10.528;2023-09-19T07:55:15;100312.59;;;23.38
76381;BMP280;65202;52.520;10.528;2023-09-19T07:57:44;100310.47;;;23.10
76381;BMP280;65202;52.520;10.528;2023-09-19T08:00:11;100322.84;;;22.69
76381;BMP280;65202;52.520;10.528;2023-09-19T08:02:40;100318.59;;;22.67
76381;BMP280;65202;52.520;10.528;2023-09-19T08:05:10;100324.25;;;22.94
76381;BMP280;65202;52.520;10.528;2023-09-19T08:07:40;100330.97;;;23.04
76381;BMP280;65202;52.520;10.528;2023-09-19T08:10:09;100340.28;;;22.24
76381;BMP280;65202;52.520;10.528;2023-09-19T08:12:40;100353.06;;;22.21
76381;BMP280;65202;52.520;10.528;2023-09-19T08:15:19;100335.00;;;23.18
76381;BMP280;65202;52.520;10.528;2023-09-19T08:17:47;100326.47;;;22.46
76381;BMP280;65202;52.520;10.528;2023-09-19T08:20:16;100329.38;;;22.10
76381;BMP280;65202;52.520;10.528;2023-09-19T08:22:48;100338.25;;;21.57
76381;BMP280;65202;52.520;10.528;2023-09-19T08:25:20;100341.44;;;21.89
76381;BMP280;65202;52.520;10.528;2023-09-19T08:27:50;100345.03;;;21.62
76381;BMP280;65202;52.520;10.528;2023-09-19T08:30:22;100358.03;;;21.09
76381;BMP280;65202;52.520;10.528;2023-09-19T08:33:00;100349.00;;;21.99
76381;BMP280;65202;52.520;10.528;2023-09-19T08:35:28;100338.69;;;22.96
76381;BMP280;65202;52.520;10.528;2023-09-19T08:37:56;100343.44;;;23.25
76381;BMP280;65202;52.520;10.528;2023-09-19T08:40:24;100332.19;;;24.46
76381;BMP280;65202;52.520;10.528;2023-09-19T08:42:53;100338.84;;;22.82
76381;BMP280;65202;52.520;10.528;2023-09-19T08:45:25;100346.81;;;22.56
76381;BMP280;65202;52.520;10.528;2023-09-19T08:48:25;100341.16;;;22.21
76381;BMP280;65202;52.520;10.528;2023-09-19T08:51:03;100346.97;;;22.37
76381;BMP280;65202;52.520;10.528;2023-09-19T08:53:52;100335.94;;;22.36
76381;BMP280;65202;52.520;10.528;2023-09-19T08:56:26;100347.97;;;20.69
76381;BMP280;65202;52.520;10.528;2023-09-19T08:59:00;100343.59;;;21.12
76381;BMP280;65202;52.520;10.528;2023-09-19T09:01:35;100342.72;;;21.16
76381;BMP280;65202;52.520;10.528;2023-09-19T09:04:03;100343.13;;;21.87
76381;BMP280;65202;52.520;10.528;2023-09-19T09:06:42;100350.97;;;21.66
76381;BMP280;65202;52.520;10.528;2023-09-19T09:09:10;100349.00;;;21.98
76381;BMP280;65202;52.520;10.528;2023-09-19T09:11:38;100369.06;;;21.02
76381;BMP280;65202;52.520;10.528;2023-09-19T09:14:07;100366.50;;;21.12
76381;BMP280;65202;52.520;10.528;2023-09-19T09:16:35;100362.88;;;21.58
76381;BMP280;65202;52.520;10.528;2023-09-19T09:19:02;100347.97;;;22.18
76381;BMP280;65202;52.520;10.528;2023-09-19T09:21:29;100368.72;;;21.72
76381;BMP280;65202;52.520;10.528;2023-09-19T09:27:03;100372.03;;;21.89
76381;BMP280;65202;52.520;10.528;2023-09-19T09:32:27;100374.72;;;21.71
76381;BMP280;65202;52.520;10.528;2023-09-19T09:34:58;100376.47;;;21.48
76381;BMP280;65202;52.520;10.528;2023-09-19T09:37:28;100373.97;;;21.51
76381;BMP280;65202;52.520;10.528;2023-09-19T09:40:02;100384.31;;;21.08
76381;BMP280;65202;52.520;10.528;2023-09-19T09:42:42;100373.94;;;21.47
76381;BMP280;65202;52.520;10.528;2023-09-19T09:45:21;100380.88;;;21.22
76381;BMP280;65202;52.520;10.528;2023-09-19T09:48:04;100369.41;;;21.98
76381;BMP280;65202;52.520;10.528;2023-09-19T09:50:48;100359.25;;;21.95
76381;BMP280;65202;52.520;10.528;2023-09-19T09:53:27;100367.78;;;21.86
76381;BMP280;65202;52.520;10.528;2023-09-19T09:55:57;100365.06;;;22.07
76381;BMP280;65202;52.520;10.528;2023-09-19T09:58:28;100366.97;;;21.81
76381;BMP280;65202;52.520;10.528;2023-09-19T10:00:59;100367.25;;;21.34
76381;BMP280;65202;52.520;10.528;2023-09-19T10:03:39;100369.13;;;20.90
76381;BMP280;65202;52.520;10.528;2023-09-19T10:06:12;100367.25;;;21.31
76381;BMP280;65202;52.520;10.528;2023-09-19T10:09:08;100375.97;;;20.55
76381;BMP280;65202;52.520;10.528;2023-09-19T10:11:44;100369.97;;;20.83
76381;BMP280;65202;52.520;10.528;2023-09-19T10:14:17;100390.38;;;20.49
76381;BMP280;65202;52.520;10.528;2023-09-19T10:16:53;100379.34;;;20.65
76381;BMP280;65202;52.520;10.528;2023-09-19T10:19:30;100370.84;;;20.73
76381;BMP280;65202;52.520;10.528;2023-09-19T10:22:04;100379.31;;;20.83
76381;BMP280;65202;52.520;10.528;2023-09-19T10:24:36;100371.50;;;21.30
76381;BMP280;65202;52.520;10.528;2023-09-19T10:27:19;100379.16;;;21.23
76381;BMP280;65202;52.520;10.528;2023-09-19T10:29:49;100386.94;;;20.96
76381;BMP280;65202;52.520;10.528;2023-09-19T10:32:22;100374.09;;;21.17
76381;BMP280;65202;52.520;10.528;2023-09-19T10:34:51;100380.19;;;20.58
76381;BMP280;65202;52.520;10.528;2023-09-19T10:37:23;100380.22;;;20.55
76381;BMP280;65202;52.520;10.528;2023-09-19T10:39:56;100383.53;;;20.91
76381;BMP280;65202;52.520;10.528;2023-09-19T10:42:25;100371.66;;;20.97
76381;BMP280;65202;52.520;10.528;2023-09-19T10:44:57;100372.41;;;21.20
76381;BMP280;65202;52.520;10.528;2023-09-19T10:47:27;100381.03;;;20.60
76381;BMP280;65202;52.520;10.528;2023-09-19T10:49:55;100377.66;;;20.77
76381;BMP280;65202;52.520;10.528;2023-09-19T10:52:25;100386.88;;;21.00
76381;BMP280;65202;52.520;10.528;2023-09-19T10:54:57;100379.13;;;21.36
76381;BMP280;65202;52.520;10.528;2023-09-19T10:57:28;100372.31;;;21.40
76381;BMP280;65202;52.520;10.528;2023-09-19T11:00:07;100377.44;;;21.32
76381;BMP280;65202;52.520;10.528;2023-09-19T11:05:40;100377.50;;;21.13
76381;BMP280;65202;52.520;10.528;2023-09-19T11:08:08;100372.34;;;21.34
76381;BMP280;65202;52.520;10.528;2023-09-19T11:10:48;100381.78;;;21.06
76381;BMP280;65202;52.520;10.528;2023-09-19T11:13:29;100381.88;;;20.80
76381;BMP280;65202;52.520;10.528;2023-09-19T11:16:04;100365.75;;;20.78
76381;BMP280;65202;52.520;10.528;2023-09-19T11:26:49;100370.88;;;20.61
76381;BMP280;65202;52.520;10.528;2023-09-19T11:29:26;100376.78;;;20.77
76381;BMP280;65202;52.520;10.528;2023-09-19T11:31:58;100376.84;;;20.29
76381;BMP280;65202;52.520;10.528;2023-09-19T11:40:06;100363.16;;;20.98
76381;BMP280;65202;52.520;10.528;2023-09-19T11:42:45;100352.91;;;21.16
76381;BMP280;65202;52.520;10.528;2023-09-19T11:48:24;100365.50;;;21.40
76381;BMP280;65202;52.520;10.528;2023-09-19T11:50:55;100372.50;;;20.90
76381;BMP280;65202;52.520;10.528;2023-09-19T11:53:31;100361.47;;;20.91
76381;BMP280;65202;52.520;10.528;2023-09-19T11:56:06;100360.66;;;20.91
76381;BMP280;65202;52.520;10.528;2023-09-19T11:58:37;100364.91;;;20.80
76381;BMP280;65202;52.520;10.528;2023-09-19T12:01:05;100371.66;;;20.91
76381;BMP280;65202;52.520;10.528;2023-09-19T12:03:36;100369.16;;;20.77
76381;BMP280;65202;52.520;10.528;2023-09-19T12:06:12;100373.31;;;21.01
76381;BMP280;65202;52.520;10.528;2023-09-19T12:08:44;100367.41;;;20.95
76381;BMP280;65202;52.520;10.528;2023-09-19T12:11:14;100363.25;;;20.75
76381;BMP280;65202;52.520;10.528;2023-09-19T12:13:47;100370.81;;;20.87
76381;BMP280;65202;52.520;10.528;2023-09-19T12:16:17;100359.63;;;21.28
76381;BMP280;65202;52.520;10.528;2023-09-19T12:18:49;100367.38;;;21.02
76381;BMP280;65202;52.520;10.528;2023-09-19T12:21:30;100369.06;;;21.02
76381;BMP280;65202;52.520;10.528;2023-09-19T12:23:59;100366.59;;;20.83
76381;BMP280;65202;52.520;10.528;2023-09-19T12:26:38;100370.84;;;20.82
76381;BMP280;65202;52.520;10.528;2023-09-19T12:29:20;100373.34;;;20.98
76381;BMP280;65202;52.520;10.528;2023-09-19T12:34:21;100370.81;;;20.87
76381;BMP280;65202;52.520;10.528;2023-09-19T12:37:09;100357.22;;;21.02
76381;BMP280;65202;52.520;10.528;2023-09-19T12:39:51;100354.66;;;21.02
76381;BMP280;65202;52.520;10.528;2023-09-19T12:42:24;100352.91;;;21.10
76381;BMP280;65202;52.520;10.528;2023-09-19T12:44:59;100351.06;;;21.42
76381;BMP280;65202;52.520;10.528;2023-09-19T12:47:28;100354.63;;;21.10
76381;BMP280;65202;52.520;10.528;2023-09-19T12:50:17;100353.84;;;20.96
76381;BMP280;65202;52.520;10.528;2023-09-19T12:52:47;100356.41;;;20.89
76381;BMP280;65202;52.520;10.528;2023-09-19T12:55:27;100351.31;;;20.86
76381;BMP280;65202;52.520;10.528;2023-09-19T13:00:39;100353.03;;;20.64
76381;BMP280;65202;52.520;10.528;2023-09-19T13:03:25;100361.50;;;20.71
76381;BMP280;65202;52.520;10.528;2023-09-19T13:06:00;100356.41;;;20.71
76381;BMP280;65202;52.520;10.528;2023-09-19T13:08:35;100347.97;;;20.75
76381;BMP280;65202;52.520;10.528;2023-09-19T13:13:47;100342.72;;;21.16
76381;BMP280;65202;52.520;10.528;2023-09-19T13:16:21;100337.66;;;21.10
76381;BMP280;65202;52.520;10.528;2023-09-19T13:18:52;100339.41;;;20.98
76381;BMP280;65202;52.520;10.528;2023-09-19T13:21:32;100341.88;;;21.14
76381;BMP280;65202;52.520;10.528;2023-09-19T13:24:24;100329.25;;;20.90
76381;BMP280;65202;52.520;10.528;2023-09-19T13:26:56;100337.66;;;21.13
76381;BMP280;65202;52.520;10.528;2023-09-19T13:29:24;100324.00;;;21.25
76381;BMP280;65202;52.520;10.528;2023-09-19T13:31:52;100327.47;;;21.13
76381;BMP280;65202;52.520;10.528;2023-09-19T13:34:20;100334.19;;;21.23
76381;BMP280;65202;52.520;10.528;2023-09-19T13:36:48;100326.50;;;21.35
76381;BMP280;65202;52.520;10.528;2023-09-19T13:39:16;100329.88;;;21.37
76381;BMP280;65202;52.520;10.528;2023-09-19T13:41:45;100326.50;;;21.34
76381;BMP280;65202;52.520;10.528;2023-09-19T13:44:14;100327.34;;;21.34
76381;BMP280;65202;52.520;10.528;2023-09-19T13:46:43;100318.13;;;21.12
76381;BMP280;65202;52.520;10.528;2023-09-19T13:49:14;100322.31;;;21.22
76381;BMP280;65202;52.520;10.528;2023-09-19T13:51:42;100325.66;;;21.30
76381;BMP280;65202;52.520;10.528;2023-09-19T13:54:11;100320.63;;;21.21
76381;BMP280;65202;52.520;10.528;2023-09-19T13:56:39;100327.28;;;21.43
76381;BMP280;65202;52.520;10.528;2023-09-19T13:59:06;100316.41;;;21.14
76381;BMP280;65202;52.520;10.528;2023-09-19T14:01:34;100317.38;;;20.94
76381;BMP280;65202;52.520;10.528;2023-09-19T14:04:01;100315.72;;;20.83
76381;BMP280;65202;52.520;10.528;2023-09-19T14:06:29;100309.69;;;21.06
76381;BMP280;65202;52.520;10.528;2023-09-19T14:08:56;100334.19;;;21.20
76381;BMP280;65202;52.520;10.528;2023-09-19T14:11:23;100323.31;;;20.91
76381;BMP280;65202;52.520;10.528;2023-09-19T14:13:51;100313.91;;;21.05
76381;BMP280;65202;52.520;10.528;2023-09-19T14:16:22;100308.00;;;20.94
76381;BMP280;65202;52.520;10.528;2023-09-19T14:18:51;100307.19;;;20.95
76381;BMP280;65202;52.520;10.528;2023-09-19T14:21:19;100313.03;;;21.12
76381;BMP280;65202;52.520;10.528;2023-09-19T14:23:46;100307.00;;;21.28
76381;BMP280;65202;52.520;10.528;2023-09-19T14:26:15;100296.09;;;21.05
76381;BMP280;65202;52.520;10.528;2023-09-19T14:28:44;100301.25;;;20.93
76381;BMP280;65202;52.520;10.528;2023-09-19T14:31:12;100290.22;;;20.93
76381;BMP280;65202;52.520;10.528;2023-09-19T14:33:39;100286.78;;;21.01
76381;BMP280;65202;52.520;10.528;2023-09-19T14:36:08;100296.97;;;21.01
76381;BMP280;65202;52.520;10.528;2023-09-19T14:38:37;100285.94;;;21.04
76381;BMP280;65202;52.520;10.528;2023-09-19T14:41:06;100289.25;;;21.16
76381;BMP280;65202;52.520;10.528;2023-09-19T14:43:34;100288.38;;;21.20
76381;BMP280;65202;52.520;10.528;2023-09-19T14:46:05;100285.00;;;21.17
76381;BMP280;65202;52.520;10.528;2023-09-19T14:48:39;100282.53;;;21.06
76381;BMP280;65202;52.520;10.528;2023-09-19T14:51:07;100277.47;;;21.00
76381;BMP280;65202;52.520;10.528;2023-09-19T14:53:39;100280.13;;;20.62
76381;BMP280;65202;52.520;10.528;2023-09-19T14:56:09;100269.16;;;20.58